Ocean Grove, NJ

9:44 PM EDT on September 19, 2014 (GMT -0400)
Asbury Park | Change Station
CLOSE
Current Station
Personal Weather Station
Location: Asbury Park, NJ
Elevation: 7 ft
Nearby Weather Stations

Elev 7 ft 40.22 °N, 74.01 °W | Updated 6 minutes ago

Overcast
Overcast
62.2 °F
Feels Like 62.2 °F
N
15.5
Wind Variable Wind from SSE

Today
High -- | Low -- °F
--% Chance of Precip.
Yesterday
High -- | Low -- °F
Precip. -- in
6:40 AM 6:58 PM
Waning Crescent, 15% visible
Pressure 30.36 in
Visibility 10.0 miles
Clouds Scattered Clouds 2700 ft
Mostly Cloudy 3300 ft
Overcast 3800 ft
Dew Point 50 °F
Humidity 65%
Rainfall 0.00 in
Snow Depth Not available.
UV 0 out of 12
Pollen 2.60 out of 12
Air Quality Not available.
Flu Activity Not available.
METAR KBLM 200135Z AUTO 10009KT 10SM SCT027 BKN033 OVC038 16/10 A3036 RMK AO1

More Conditions Fewer Conditions

Pressure 30.36 in
Visibility 10.0 miles
Clouds Scattered Clouds 2700 ft
Mostly Cloudy 3300 ft
Overcast 3800 ft
Dew Point 50 °F
Humidity 65%
Rainfall 0.00 in
Snow Depth Not available.
UV 0 out of 12
Pollen 2.60 out of 12
Air Quality Not available.
Flu Activity Not available.
METAR KBLM 200135Z AUTO 10009KT 10SM SCT027 BKN033 OVC038 16/10 A3036 RMK AO1

More Conditions Fewer Conditions

10-Day Weather Forecast

Almanac

Astronomy

Sep. 19, 2014 Rise Set
Actual Time 6:40 AM EDT 6:58 PM EDT
Civil Twilight 6:13 AM EDT 7:25 PM EDT
Nautical Twilight 5:41 AM EDT 7:57 PM EDT
Astronomical Twilight 5:09 AM EDT 8:29 PM EDT
Moon 2:23 AM EDT (9/19) 4:25 PM EDT (9/19)
Length of Visible Light 13h 11m
Length of Day
12h 17m
Tomorrow will be 2m 38s shorter.
Waning Crescent, 15% of the Moon is Illuminated
Today
Waning Crescent
Sep 24
New
Oct 1
First Quarter
Oct 8
Full
Oct 15
Last Quarter

Today's Extremes

State Highs State Lows

Community

WunderPhotos

Upload Photos

1,754,760 photos uploaded!

WunderBlogs® & News

Nearby

Snow Depth

Station Depth Elevation
No new snow has been reported.

Earthquake Activity

City Distance Mag. Time & Date
No recent earthquake activity has been reported nearby.
Minimum magnitude displayed is 2.5.

Coastal Water Temperatures

Place Temperature
Sandy Hook, NJ 69.1 °F
Bergen Point West Reach, NJ 70.0 °F
The Battery, NY 70.0 °F

Nearby Weather Stations